sensor_id;sensor_type;location;lat;lon;timestamp;temperature;humidity
2957;DHT22;1488;51.548;7.222;2023-02-22T00:00:36;21.30;63.70
2957;DHT22;1488;51.548;7.222;2023-02-22T00:03:09;21.20;63.50
2957;DHT22;1488;51.548;7.222;2023-02-22T00:05:37;21.20;63.50
2957;DHT22;1488;51.548;7.222;2023-02-22T00:08:05;21.20;63.50
2957;DHT22;1488;51.548;7.222;2023-02-22T00:10:34;21.20;63.50
2957;DHT22;1488;51.548;7.222;2023-02-22T00:13:04;21.20;63.40
2957;DHT22;1488;51.548;7.222;2023-02-22T00:15:31;21.20;63.40
2957;DHT22;1488;51.548;7.222;2023-02-22T00:18:00;21.20;63.40
2957;DHT22;1488;51.548;7.222;2023-02-22T00:20:27;21.20;63.40
2957;DHT22;1488;51.548;7.222;2023-02-22T00:22:55;21.20;63.30
2957;DHT22;1488;51.548;7.222;2023-02-22T00:25:23;21.20;63.30
2957;DHT22;1488;51.548;7.222;2023-02-22T00:27:50;21.20;63.30
2957;DHT22;1488;51.548;7.222;2023-02-22T00:30:20;21.20;63.30
2957;DHT22;1488;51.548;7.222;2023-02-22T00:32:48;21.20;63.30
2957;DHT22;1488;51.548;7.222;2023-02-22T00:35:19;21.20;63.30
2957;DHT22;1488;51.548;7.222;2023-02-22T00:37:47;21.20;63.20
2957;DHT22;1488;51.548;7.222;2023-02-22T00:40:17;21.20;63.20
2957;DHT22;1488;51.548;7.222;2023-02-22T00:42:44;21.20;63.20
2957;DHT22;1488;51.548;7.222;2023-02-22T00:45:12;21.20;63.20
2957;DHT22;1488;51.548;7.222;2023-02-22T00:47:41;21.20;63.10
2957;DHT22;1488;51.548;7.222;2023-02-22T00:50:08;21.20;63.10
2957;DHT22;1488;51.548;7.222;2023-02-22T00:52:37;21.20;63.00
2957;DHT22;1488;51.548;7.222;2023-02-22T00:55:07;21.20;63.00
2957;DHT22;1488;51.548;7.222;2023-02-22T00:57:34;21.20;63.00
2957;DHT22;1488;51.548;7.222;2023-02-22T01:00:02;21.30;63.10
2957;DHT22;1488;51.548;7.222;2023-02-22T01:02:36;21.20;63.00
2957;DHT22;1488;51.548;7.222;2023-02-22T01:05:04;21.10;62.80
2957;DHT22;1488;51.548;7.222;2023-02-22T01:07:31;21.10;62.80
2957;DHT22;1488;51.548;7.222;2023-02-22T01:09:59;21.10;62.80
2957;DHT22;1488;51.548;7.222;2023-02-22T01:12:26;21.10;62.80
2957;DHT22;1488;51.548;7.222;2023-02-22T01:14:52;21.10;62.80
2957;DHT22;1488;51.548;7.222;2023-02-22T01:17:21;21.10;62.80
2957;DHT22;1488;51.548;7.222;2023-02-22T01:19:48;21.10;62.80
2957;DHT22;1488;51.548;7.222;2023-02-22T01:22:17;21.10;62.70
2957;DHT22;1488;51.548;7.222;2023-02-22T01:24:44;21.10;62.70
2957;DHT22;1488;51.548;7.222;2023-02-22T01:27:13;21.10;62.70
2957;DHT22;1488;51.548;7.222;2023-02-22T01:29:40;21.10;62.70
2957;DHT22;1488;51.548;7.222;2023-02-22T01:32:07;21.10;62.70
2957;DHT22;1488;51.548;7.222;2023-02-22T01:34:37;21.10;62.60
2957;DHT22;1488;51.548;7.222;2023-02-22T01:37:05;21.10;62.60
2957;DHT22;1488;51.548;7.222;2023-02-22T01:42:57;21.10;62.60
2957;DHT22;1488;51.548;7.222;2023-02-22T01:45:43;21.00;62.60
2957;DHT22;1488;51.548;7.222;2023-02-22T01:48:15;21.10;62.60
2957;DHT22;1488;51.548;7.222;2023-02-22T01:50:45;21.20;62.70
2957;DHT22;1488;51.548;7.222;2023-02-22T01:53:16;21.10;62.60
2957;DHT22;1488;51.548;7.222;2023-02-22T01:55:44;21.10;62.60
2957;DHT22;1488;51.548;7.222;2023-02-22T01:58:14;21.10;62.60
2957;DHT22;1488;51.548;7.222;2023-02-22T02:00:42;21.00;62.50
2957;DHT22;1488;51.548;7.222;2023-02-22T02:03:13;21.00;62.40
2957;DHT22;1488;51.548;7.222;2023-02-22T02:05:42;21.00;62.40
2957;DHT22;1488;51.548;7.222;2023-02-22T02:08:15;21.00;62.50
2957;DHT22;1488;51.548;7.222;2023-02-22T02:10:43;21.00;62.40
2957;DHT22;1488;51.548;7.222;2023-02-22T02:13:10;21.00;62.40
2957;DHT22;1488;51.548;7.222;2023-02-22T02:15:38;21.20;62.70
2957;DHT22;1488;51.548;7.222;2023-02-22T02:18:08;21.00;62.40
2957;DHT22;1488;51.548;7.222;2023-02-22T02:20:41;21.00;62.30
2957;DHT22;1488;51.548;7.222;2023-02-22T02:23:26;21.00;62.40
2957;DHT22;1488;51.548;7.222;2023-02-22T02:29:21;21.00;62.30
2957;DHT22;1488;51.548;7.222;2023-02-22T02:35:04;21.00;62.30
2957;DHT22;1488;51.548;7.222;2023-02-22T02:37:36;21.00;62.40
2957;DHT22;1488;51.548;7.222;2023-02-22T02:40:13;21.00;62.40
2957;DHT22;1488;51.548;7.222;2023-02-22T02:42:50;21.00;62.40
2957;DHT22;1488;51.548;7.222;2023-02-22T02:45:24;21.00;62.40
2957;DHT22;1488;51.548;7.222;2023-02-22T02:47:55;20.90;62.30
2957;DHT22;1488;51.548;7.222;2023-02-22T02:50:28;21.10;62.50
2957;DHT22;1488;51.548;7.222;2023-02-22T02:53:00;20.90;62.30
2957;DHT22;1488;51.548;7.222;2023-02-22T02:55:28;20.90;62.30
2957;DHT22;1488;51.548;7.222;2023-02-22T02:57:57;20.90;62.30
2957;DHT22;1488;51.548;7.222;2023-02-22T03:00:27;20.90;62.30
2957;DHT22;1488;51.548;7.222;2023-02-22T03:03:10;21.10;63.30
2957;DHT22;1488;51.548;7.222;2023-02-22T03:05:59;20.90;62.30
2957;DHT22;1488;51.548;7.222;2023-02-22T03:08:34;20.90;62.20
2957;DHT22;1488;51.548;7.222;2023-02-22T03:11:10;20.90;62.30
2957;DHT22;1488;51.548;7.222;2023-02-22T03:13:48;21.10;62.40
2957;DHT22;1488;51.548;7.222;2023-02-22T03:16:20;20.90;62.20
2957;DHT22;1488;51.548;7.222;2023-02-22T03:18:55;20.90;62.20
2957;DHT22;1488;51.548;7.222;2023-02-22T03:21:31;20.90;62.20
2957;DHT22;1488;51.548;7.222;2023-02-22T03:24:05;20.90;63.00
2957;DHT22;1488;51.548;7.222;2023-02-22T03:26:38;20.90;62.20
2957;DHT22;1488;51.548;7.222;2023-02-22T03:29:08;20.90;62.10
2957;DHT22;1488;51.548;7.222;2023-02-22T03:31:39;20.90;62.20
2957;DHT22;1488;51.548;7.222;2023-02-22T03:34:12;20.90;62.10
2957;DHT22;1488;51.548;7.222;2023-02-22T03:36:46;20.90;62.10
2957;DHT22;1488;51.548;7.222;2023-02-22T03:39:15;20.90;62.10
2957;DHT22;1488;51.548;7.222;2023-02-22T03:41:47;20.90;62.10
2957;DHT22;1488;51.548;7.222;2023-02-22T03:44:19;20.90;62.00
2957;DHT22;1488;51.548;7.222;2023-02-22T03:46:50;20.90;62.10
2957;DHT22;1488;51.548;7.222;2023-02-22T03:49:24;20.90;62.10
2957;DHT22;1488;51.548;7.222;2023-02-22T03:51:55;20.90;62.00
2957;DHT22;1488;51.548;7.222;2023-02-22T03:54:22;20.90;62.00
2957;DHT22;1488;51.548;7.222;2023-02-22T03:56:51;20.90;62.00
2957;DHT22;1488;51.548;7.222;2023-02-22T03:59:19;20.90;62.00
2957;DHT22;1488;51.548;7.222;2023-02-22T04:01:50;20.80;61.90
2957;DHT22;1488;51.548;7.222;2023-02-22T04:04:17;20.80;61.90
2957;DHT22;1488;51.548;7.222;2023-02-22T04:06:46;20.80;61.90
2957;DHT22;1488;51.548;7.222;2023-02-22T04:09:16;20.80;61.90
2957;DHT22;1488;51.548;7.222;2023-02-22T04:11:43;20.80;61.90
2957;DHT22;1488;51.548;7.222;2023-02-22T04:14:10;20.90;61.90
2957;DHT22;1488;51.548;7.222;2023-02-22T04:16:38;20.80;61.80
2957;DHT22;1488;51.548;7.222;2023-02-22T04:19:05;20.80;61.80
2957;DHT22;1488;51.548;7.222;2023-02-22T04:21:32;20.80;61.80
2957;DHT22;1488;51.548;7.222;2023-02-22T04:23:59;20.80;62.70
2957;DHT22;1488;51.548;7.222;2023-02-22T04:26:27;20.80;61.90
2957;DHT22;1488;51.548;7.222;2023-02-22T04:28:54;20.90;61.90
2957;DHT22;1488;51.548;7.222;2023-02-22T04:31:20;20.80;61.80
2957;DHT22;1488;51.548;7.222;2023-02-22T04:33:47;20.80;61.80
2957;DHT22;1488;51.548;7.222;2023-02-22T04:36:14;20.80;61.80
2957;DHT22;1488;51.548;7.222;2023-02-22T04:38:41;20.80;61.70
2957;DHT22;1488;51.548;7.222;2023-02-22T04:41:08;20.80;61.80
2957;DHT22;1488;51.548;7.222;2023-02-22T04:43:37;20.80;61.80
2957;DHT22;1488;51.548;7.222;2023-02-22T04:46:04;20.90;61.80
2957;DHT22;1488;51.548;7.222;2023-02-22T04:48:31;20.80;61.70
2957;DHT22;1488;51.548;7.222;2023-02-22T04:50:57;20.80;61.70
2957;DHT22;1488;51.548;7.222;2023-02-22T04:53:24;20.80;61.80
2957;DHT22;1488;51.548;7.222;2023-02-22T04:55:51;20.80;61.70
2957;DHT22;1488;51.548;7.222;2023-02-22T04:58:18;20.80;61.70
2957;DHT22;1488;51.548;7.222;2023-02-22T05:00:47;20.80;62.50
2957;DHT22;1488;51.548;7.222;2023-02-22T05:03:13;20.90;61.80
2957;DHT22;1488;51.548;7.222;2023-02-22T05:05:40;20.70;61.50
2957;DHT22;1488;51.548;7.222;2023-02-22T05:08:07;20.90;61.80
2957;DHT22;1488;51.548;7.222;2023-02-22T05:10:34;20.70;61.50
2957;DHT22;1488;51.548;7.222;2023-02-22T05:13:01;20.70;61.50
2957;DHT22;1488;51.548;7.222;2023-02-22T05:15:28;20.70;61.50
2957;DHT22;1488;51.548;7.222;2023-02-22T05:17:56;20.70;61.50
2957;DHT22;1488;51.548;7.222;2023-02-22T05:20:26;20.70;61.50
2957;DHT22;1488;51.548;7.222;2023-02-22T05:22:53;20.70;61.50
2957;DHT22;1488;51.548;7.222;2023-02-22T05:25:20;20.70;61.50
2957;DHT22;1488;51.548;7.222;2023-02-22T05:27:51;20.90;61.70
2957;DHT22;1488;51.548;7.222;2023-02-22T05:30:18;20.90;61.70
2957;DHT22;1488;51.548;7.222;2023-02-22T05:32:48;20.70;61.50
2957;DHT22;1488;51.548;7.222;2023-02-22T05:35:17;20.70;61.40
2957;DHT22;1488;51.548;7.222;2023-02-22T05:37:44;20.70;61.40
2957;DHT22;1488;51.548;7.222;2023-02-22T05:40:12;20.70;61.40
2957;DHT22;1488;51.548;7.222;2023-02-22T05:42:39;20.70;61.40
2957;DHT22;1488;51.548;7.222;2023-02-22T05:45:07;20.70;61.40
2957;DHT22;1488;51.548;7.222;2023-02-22T05:47:34;20.70;61.40
2957;DHT22;1488;51.548;7.222;2023-02-22T05:50:01;20.90;61.60
2957;DHT22;1488;51.548;7.222;2023-02-22T05:52:29;20.70;61.40
2957;DHT22;1488;51.548;7.222;2023-02-22T05:58:18;20.70;61.30
2957;DHT22;1488;51.548;7.222;2023-02-22T06:00:45;20.70;62.30
2957;DHT22;1488;51.548;7.222;2023-02-22T06:06:33;20.70;61.40
2957;DHT22;1488;51.548;7.222;2023-02-22T06:09:02;20.60;61.30
2957;DHT22;1488;51.548;7.222;2023-02-22T06:11:29;20.60;61.30
2957;DHT22;1488;51.548;7.222;2023-02-22T06:13:55;20.60;61.30
2957;DHT22;1488;51.548;7.222;2023-02-22T06:16:22;20.60;61.30
2957;DHT22;1488;51.548;7.222;2023-02-22T06:18:49;20.60;61.20
2957;DHT22;1488;51.548;7.222;2023-02-22T06:21:16;20.60;61.20
2957;DHT22;1488;51.548;7.222;2023-02-22T06:23:43;20.60;61.20
2957;DHT22;1488;51.548;7.222;2023-02-22T06:26:11;20.60;61.20
2957;DHT22;1488;51.548;7.222;2023-02-22T06:28:41;20.60;61.20
2957;DHT22;1488;51.548;7.222;2023-02-22T06:31:07;20.60;61.20
2957;DHT22;1488;51.548;7.222;2023-02-22T06:33:34;20.60;61.10
2957;DHT22;1488;51.548;7.222;2023-02-22T06:36:02;20.60;61.10
2957;DHT22;1488;51.548;7.222;2023-02-22T06:38:30;20.60;61.10
2957;DHT22;1488;51.548;7.222;2023-02-22T06:40:56;20.60;61.10
2957;DHT22;1488;51.548;7.222;2023-02-22T06:43:25;20.60;61.10
2957;DHT22;1488;51.548;7.222;2023-02-22T06:45:52;20.60;61.10
2957;DHT22;1488;51.548;7.222;2023-02-22T06:48:19;20.80;61.30
2957;DHT22;1488;51.548;7.222;2023-02-22T06:50:46;20.60;61.10
2957;DHT22;1488;51.548;7.222;2023-02-22T06:53:13;20.60;61.10
2957;DHT22;1488;51.548;7.222;2023-02-22T06:55:40;20.60;61.10
2957;DHT22;1488;51.548;7.222;2023-02-22T06:58:06;20.60;61.10
2957;DHT22;1488;51.548;7.222;2023-02-22T07:00:35;20.60;61.10
2957;DHT22;1488;51.548;7.222;2023-02-22T07:03:03;20.60;61.00
2957;DHT22;1488;51.548;7.222;2023-02-22T07:05:30;20.80;61.30
2957;DHT22;1488;51.548;7.222;2023-02-22T07:08:02;20.60;61.10
2957;DHT22;1488;51.548;7.222;2023-02-22T07:10:31;20.70;61.20
2957;DHT22;1488;51.548;7.222;2023-02-22T07:12:58;20.60;61.20
2957;DHT22;1488;51.548;7.222;2023-02-22T07:15:26;20.70;61.20
2957;DHT22;1488;51.548;7.222;2023-02-22T07:17:54;20.60;61.10
2957;DHT22;1488;51.548;7.222;2023-02-22T07:20:22;20.70;61.20
2957;DHT22;1488;51.548;7.222;2023-02-22T07:22:49;20.80;61.30
2957;DHT22;1488;51.548;7.222;2023-02-22T07:25:16;20.60;61.20
2957;DHT22;1488;51.548;7.222;2023-02-22T07:27:44;20.60;61.10
2957;DHT22;1488;51.548;7.222;2023-02-22T07:30:16;20.80;61.40
2957;DHT22;1488;51.548;7.222;2023-02-22T07:32:43;20.70;61.20
2957;DHT22;1488;51.548;7.222;2023-02-22T07:35:15;20.70;61.30
2957;DHT22;1488;51.548;7.222;2023-02-22T07:37:42;20.70;61.30
2957;DHT22;1488;51.548;7.222;2023-02-22T07:40:10;20.80;61.50
2957;DHT22;1488;51.548;7.222;2023-02-22T07:42:51;20.70;61.20
2957;DHT22;1488;51.548;7.222;2023-02-22T07:45:20;20.70;61.30
2957;DHT22;1488;51.548;7.222;2023-02-22T07:47:48;20.70;61.40
2957;DHT22;1488;51.548;7.222;2023-02-22T07:50:17;20.70;61.40
2957;DHT22;1488;51.548;7.222;2023-02-22T07:52:45;20.70;61.50
2957;DHT22;1488;51.548;7.222;2023-02-22T07:55:13;20.70;61.50
2957;DHT22;1488;51.548;7.222;2023-02-22T07:57:41;20.70;61.70
2957;DHT22;1488;51.548;7.222;2023-02-22T08:00:09;20.70;61.50
2957;DHT22;1488;51.548;7.222;2023-02-22T08:02:38;20.70;61.60
2957;DHT22;1488;51.548;7.222;2023-02-22T08:05:06;20.70;61.80
2957;DHT22;1488;51.548;7.222;2023-02-22T08:07:34;20.70;61.70
2957;DHT22;1488;51.548;7.222;2023-02-22T08:10:01;20.70;61.50
2957;DHT22;1488;51.548;7.222;2023-02-22T08:12:31;20.70;61.70
2957;DHT22;1488;51.548;7.222;2023-02-22T08:14:59;20.70;61.70
2957;DHT22;1488;51.548;7.222;2023-02-22T08:17:26;20.70;61.70
2957;DHT22;1488;51.548;7.222;2023-02-22T08:19:53;20.70;61.70
2957;DHT22;1488;51.548;7.222;2023-02-22T08:22:20;20.70;61.70
2957;DHT22;1488;51.548;7.222;2023-02-22T08:28:11;20.70;61.60
2957;DHT22;1488;51.548;7.222;2023-02-22T08:30:40;20.70;62.50
2957;DHT22;1488;51.548;7.222;2023-02-22T08:33:08;20.70;61.80
2957;DHT22;1488;51.548;7.222;2023-02-22T08:35:38;20.70;61.60
2957;DHT22;1488;51.548;7.222;2023-02-22T08:38:07;20.70;61.50
2957;DHT22;1488;51.548;7.222;2023-02-22T08:40:40;20.90;61.80
2957;DHT22;1488;51.548;7.222;2023-02-22T08:43:11;20.80;61.70
2957;DHT22;1488;51.548;7.222;2023-02-22T08:45:40;20.80;61.70
2957;DHT22;1488;51.548;7.222;2023-02-22T08:48:08;20.80;61.60
2957;DHT22;1488;51.548;7.222;2023-02-22T08:53:57;20.80;61.40
2957;DHT22;1488;51.548;7.222;2023-02-22T08:56:24;20.80;61.40
2957;DHT22;1488;51.548;7.222;2023-02-22T08:58:52;21.00;61.50
2957;DHT22;1488;51.548;7.222;2023-02-22T09:01:19;20.90;61.90
2957;DHT22;1488;51.548;7.222;2023-02-22T09:03:47;20.90;62.80
2957;DHT22;1488;51.548;7.222;2023-02-22T09:06:14;20.90;63.20
2957;DHT22;1488;51.548;7.222;2023-02-22T09:08:41;20.90;63.00
2957;DHT22;1488;51.548;7.222;2023-02-22T09:11:08;20.90;62.50
2957;DHT22;1488;51.548;7.222;2023-02-22T09:13:35;21.00;62.80
2957;DHT22;1488;51.548;7.222;2023-02-22T09:25:56;21.30;69.20
2957;DHT22;1488;51.548;7.222;2023-02-22T09:28:24;21.30;63.10
2957;DHT22;1488;51.548;7.222;2023-02-22T09:30:51;21.30;63.30
2957;DHT22;1488;51.548;7.222;2023-02-22T09:33:20;21.40;63.20
2957;DHT22;1488;51.548;7.222;2023-02-22T09:35:49;21.50;63.20
2957;DHT22;1488;51.548;7.222;2023-02-22T09:38:18;21.50;63.10
2957;DHT22;1488;51.548;7.222;2023-02-22T09:40:49;21.50;63.00
2957;DHT22;1488;51.548;7.222;2023-02-22T09:43:26;21.60;62.80
2957;DHT22;1488;51.548;7.222;2023-02-22T09:48:44;22.50;65.20
2957;DHT22;1488;51.548;7.222;2023-02-22T09:51:16;22.00;61.90
2957;DHT22;1488;51.548;7.222;2023-02-22T10:03:51;23.20;73.60
2957;DHT22;1488;51.548;7.222;2023-02-22T10:06:22;23.20;74.50
2957;DHT22;1488;51.548;7.222;2023-02-22T10:08:50;23.30;75.90
2957;DHT22;1488;51.548;7.222;2023-02-22T10:11:33;23.40;83.00
2957;DHT22;1488;51.548;7.222;2023-02-22T10:14:16;23.50;78.00
2957;DHT22;1488;51.548;7.222;2023-02-22T10:16:47;23.60;71.60
2957;DHT22;1488;51.548;7.222;2023-02-22T10:19:24;23.60;68.20
2957;DHT22;1488;51.548;7.222;2023-02-22T10:22:06;23.70;67.70
2957;DHT22;1488;51.548;7.222;2023-02-22T10:24:45;23.80;67.30
2957;DHT22;1488;51.548;7.222;2023-02-22T10:27:17;23.80;67.00
2957;DHT22;1488;51.548;7.222;2023-02-22T10:29:48;24.00;67.40
2957;DHT22;1488;51.548;7.222;2023-02-22T10:32:20;23.90;67.50
2957;DHT22;1488;51.548;7.222;2023-02-22T10:34:52;23.70;67.60
2957;DHT22;1488;51.548;7.222;2023-02-22T10:37:24;23.80;67.70
2957;DHT22;1488;51.548;7.222;2023-02-22T10:39:55;23.50;67.20
2957;DHT22;1488;51.548;7.222;2023-02-22T10:42:25;23.40;67.40
2957;DHT22;1488;51.548;7.222;2023-02-22T10:44:52;23.40;67.50
2957;DHT22;1488;51.548;7.222;2023-02-22T10:47:19;23.50;67.70
2957;DHT22;1488;51.548;7.222;2023-02-22T10:49:52;23.20;67.90
2957;DHT22;1488;51.548;7.222;2023-02-22T10:52:24;23.00;68.10
2957;DHT22;1488;51.548;7.222;2023-02-22T10:54:55;22.90;68.20
2957;DHT22;1488;51.548;7.222;2023-02-22T10:57:25;22.80;68.20
2957;DHT22;1488;51.548;7.222;2023-02-22T10:59:53;22.80;68.10
2957;DHT22;1488;51.548;7.222;2023-02-22T11:02:24;22.70;68.90
2957;DHT22;1488;51.548;7.222;2023-02-22T11:04:56;22.70;68.70
2957;DHT22;1488;51.548;7.222;2023-02-22T11:07:25;22.70;68.70
2957;DHT22;1488;51.548;7.222;2023-02-22T11:09:54;22.60;68.80
2957;DHT22;1488;51.548;7.222;2023-02-22T11:12:27;22.60;68.50
2957;DHT22;1488;51.548;7.222;2023-02-22T11:14:55;22.60;68.80
2957;DHT22;1488;51.548;7.222;2023-02-22T11:17:28;22.60;68.50
2957;DHT22;1488;51.548;7.222;2023-02-22T11:19:57;22.60;68.20
2957;DHT22;1488;51.548;7.222;2023-02-22T11:22:27;22.60;68.30
2957;DHT22;1488;51.548;7.222;2023-02-22T11:24:57;22.70;68.30
2957;DHT22;1488;51.548;7.222;2023-02-22T11:27:30;22.50;68.00
2957;DHT22;1488;51.548;7.222;2023-02-22T11:30:16;22.60;68.00
2957;DHT22;1488;51.548;7.222;2023-02-22T11:32:47;22.60;67.70
2957;DHT22;1488;51.548;7.222;2023-02-22T11:35:32;22.60;67.90
2957;DHT22;1488;51.548;7.222;2023-02-22T11:38:10;22.60;67.50
2957;DHT22;1488;51.548;7.222;2023-02-22T11:40:37;22.50;67.80
2957;DHT22;1488;51.548;7.222;2023-02-22T11:43:09;22.60;67.60
2957;DHT22;1488;51.548;7.222;2023-02-22T11:45:56;22.60;67.60
2957;DHT22;1488;51.548;7.222;2023-02-22T11:48:26;22.60;68.40
2957;DHT22;1488;51.548;7.222;2023-02-22T11:51:03;22.50;68.00
2957;DHT22;1488;51.548;7.222;2023-02-22T11:53:44;22.60;68.20
2957;DHT22;1488;51.548;7.222;2023-02-22T11:56:21;22.60;68.10
2957;DHT22;1488;51.548;7.222;2023-02-22T11:58:55;22.60;68.20
2957;DHT22;1488;51.548;7.222;2023-02-22T12:01:33;22.60;68.10
2957;DHT22;1488;51.548;7.222;2023-02-22T12:04:29;22.60;68.40
2957;DHT22;1488;51.548;7.222;2023-02-22T12:07:13;22.60;67.60
2957;DHT22;1488;51.548;7.222;2023-02-22T12:09:49;22.60;67.90
2957;DHT22;1488;51.548;7.222;2023-02-22T12:12:21;22.60;67.90
2957;DHT22;1488;51.548;7.222;2023-02-22T12:14:56;22.60;68.00
2957;DHT22;1488;51.548;7.222;2023-02-22T12:17:40;22.60;68.10
2957;DHT22;1488;51.548;7.222;2023-02-22T12:20:16;22.60;67.90
2957;DHT22;1488;51.548;7.222;2023-02-22T12:22:55;22.60;67.50
2957;DHT22;1488;51.548;7.222;2023-02-22T12:25:26;22.60;67.50
2957;DHT22;1488;51.548;7.222;2023-02-22T12:27:57;22.60;63.10
2957;DHT22;1488;51.548;7.222;2023-02-22T12:30:26;22.60;63.10
2957;DHT22;1488;51.548;7.222;2023-02-22T12:32:57;22.60;63.00
2957;DHT22;1488;51.548;7.222;2023-02-22T12:35:27;22.70;63.00
2957;DHT22;1488;51.548;7.222;2023-02-22T12:38:00;22.70;63.90
2957;DHT22;1488;51.548;7.222;2023-02-22T12:40:32;22.60;62.60
2957;DHT22;1488;51.548;7.222;2023-02-22T12:43:05;22.60;62.90
2957;DHT22;1488;51.548;7.222;2023-02-22T12:45:37;22.60;62.90
2957;DHT22;1488;51.548;7.222;2023-02-22T12:48:17;22.60;62.90
2957;DHT22;1488;51.548;7.222;2023-02-22T12:50:47;22.60;63.00
2957;DHT22;1488;51.548;7.222;2023-02-22T12:53:22;22.70;63.00
2957;DHT22;1488;51.548;7.222;2023-02-22T12:55:53;22.70;63.00
2957;DHT22;1488;51.548;7.222;2023-02-22T12:58:26;22.70;63.10
2957;DHT22;1488;51.548;7.222;2023-02-22T13:00:59;22.70;64.00
2957;DHT22;1488;51.548;7.222;2023-02-22T13:03:32;22.70;63.10
2957;DHT22;1488;51.548;7.222;2023-02-22T13:06:11;22.70;63.20
2957;DHT22;1488;51.548;7.222;2023-02-22T13:08:47;22.70;63.20
2957;DHT22;1488;51.548;7.222;2023-02-22T13:11:21;22.70;63.20
2957;DHT22;1488;51.548;7.222;2023-02-22T13:14:02;22.70;63.20
2957;DHT22;1488;51.548;7.222;2023-02-22T13:16:40;22.70;63.20
2957;DHT22;1488;51.548;7.222;2023-02-22T13:19:24;22.70;63.20
2957;DHT22;1488;51.548;7.222;2023-02-22T13:21:56;22.70;63.20
2957;DHT22;1488;51.548;7.222;2023-02-22T13:24:30;22.70;63.20
2957;DHT22;1488;51.548;7.222;2023-02-22T13:27:00;22.70;64.10
2957;DHT22;1488;51.548;7.222;2023-02-22T13:29:30;22.70;63.20
2957;DHT22;1488;51.548;7.222;2023-02-22T13:32:18;22.70;63.20
2957;DHT22;1488;51.548;7.222;2023-02-22T13:38:08;22.70;63.30
2957;DHT22;1488;51.548;7.222;2023-02-22T13:40:49;22.70;63.30
2957;DHT22;1488;51.548;7.222;2023-02-22T13:43:35;22.60;63.30
2957;DHT22;1488;51.548;7.222;2023-02-22T13:46:33;22.60;63.20
2957;DHT22;1488;51.548;7.222;2023-02-22T13:49:27;22.60;63.20
2957;DHT22;1488;51.548;7.222;2023-02-22T13:51:57;22.80;63.60
2957;DHT22;1488;51.548;7.222;2023-02-22T13:54:28;22.60;63.30
2957;DHT22;1488;51.548;7.222;2023-02-22T13:56:57;22.60;63.30
2957;DHT22;1488;51.548;7.222;2023-02-22T13:59:27;22.60;63.20
2957;DHT22;1488;51.548;7.222;2023-02-22T14:01:55;22.60;63.20
2957;DHT22;1488;51.548;7.222;2023-02-22T14:04:44;22.60;63.20
2957;DHT22;1488;51.548;7.222;2023-02-22T14:07:44;22.60;63.10
2957;DHT22;1488;51.548;7.222;2023-02-22T14:10:44;22.60;63.10
2957;DHT22;1488;51.548;7.222;2023-02-22T14:13:13;22.60;63.10
2957;DHT22;1488;51.548;7.222;2023-02-22T14:16:15;22.60;62.90
2957;DHT22;1488;51.548;7.222;2023-02-22T14:18:43;22.70;62.80
2957;DHT22;1488;51.548;7.222;2023-02-22T14:21:12;22.60;62.80
2957;DHT22;1488;51.548;7.222;2023-02-22T14:23:41;22.60;62.70
2957;DHT22;1488;51.548;7.222;2023-02-22T14:26:11;22.60;62.70
2957;DHT22;1488;51.548;7.222;2023-02-22T14:28:47;22.60;62.80
2957;DHT22;1488;51.548;7.222;2023-02-22T14:31:18;22.60;62.80
2957;DHT22;1488;51.548;7.222;2023-02-22T14:33:55;22.60;62.90
2957;DHT22;1488;51.548;7.222;2023-02-22T14:36:26;22.50;62.80
2957;DHT22;1488;51.548;7.222;2023-02-22T14:38:58;22.60;63.00
2957;DHT22;1488;51.548;7.222;2023-02-22T14:41:29;22.50;62.80
2957;DHT22;1488;51.548;7.222;2023-02-22T14:44:02;22.50;62.90
2957;DHT22;1488;51.548;7.222;2023-02-22T14:46:32;22.50;62.80
2957;DHT22;1488;51.548;7.222;2023-02-22T14:49:06;22.50;62.80
2957;DHT22;1488;51.548;7.222;2023-02-22T14:51:43;22.50;62.80
2957;DHT22;1488;51.548;7.222;2023-02-22T14:54:23;22.50;62.80
2957;DHT22;1488;51.548;7.222;2023-02-22T14:56:57;22.60;63.00
2957;DHT22;1488;51.548;7.222;2023-02-22T14:59:27;22.50;62.90
2957;DHT22;1488;51.548;7.222;2023-02-22T15:02:05;22.40;62.70
2957;DHT22;1488;51.548;7.222;2023-02-22T15:04:32;22.40;62.70
2957;DHT22;1488;51.548;7.222;2023-02-22T15:07:00;22.40;62.70
2957;DHT22;1488;51.548;7.222;2023-02-22T15:09:33;22.60;62.90
2957;DHT22;1488;51.548;7.222;2023-02-22T15:12:14;22.40;62.70
2957;DHT22;1488;51.548;7.222;2023-02-22T15:14:44;22.40;62.70
2957;DHT22;1488;51.548;7.222;2023-02-22T15:17:17;22.40;62.80
2957;DHT22;1488;51.548;7.222;2023-02-22T15:19:46;22.30;62.80
2957;DHT22;1488;51.548;7.222;2023-02-22T15:22:20;22.30;62.80
2957;DHT22;1488;51.548;7.222;2023-02-22T15:24:56;22.30;62.80
2957;DHT22;1488;51.548;7.222;2023-02-22T15:27:24;22.30;62.90
2957;DHT22;1488;51.548;7.222;2023-02-22T15:29:58;22.30;62.80
2957;DHT22;1488;51.548;7.222;2023-02-22T15:32:31;22.30;62.80
2957;DHT22;1488;51.548;7.222;2023-02-22T15:35:11;22.20;62.80
2957;DHT22;1488;51.548;7.222;2023-02-22T15:37:39;22.30;62.90
2957;DHT22;1488;51.548;7.222;2023-02-22T15:40:07;22.20;62.80
2957;DHT22;1488;51.548;7.222;2023-02-22T15:42:43;22.20;62.80
2957;DHT22;1488;51.548;7.222;2023-02-22T15:45:16;22.20;62.80
2957;DHT22;1488;51.548;7.222;2023-02-22T15:47:44;22.20;62.90
2957;DHT22;1488;51.548;7.222;2023-02-22T15:50:18;22.20;63.00
2957;DHT22;1488;51.548;7.222;2023-02-22T15:52:49;22.20;63.00
2957;DHT22;1488;51.548;7.222;2023-02-22T15:55:18;22.20;63.10
2957;DHT22;1488;51.548;7.222;2023-02-22T15:57:47;22.20;63.10
2957;DHT22;1488;51.548;7.222;2023-02-22T16:00:21;22.20;63.00
2957;DHT22;1488;51.548;7.222;2023-02-22T16:02:49;22.20;63.10
2957;DHT22;1488;51.548;7.222;2023-02-22T16:05:17;22.10;62.90
2957;DHT22;1488;51.548;7.222;2023-02-22T16:07:46;22.10;63.00
2957;DHT22;1488;51.548;7.222;2023-02-22T16:10:26;22.10;63.10
2957;DHT22;1488;51.548;7.222;2023-02-22T16:13:06;22.10;63.00
2957;DHT22;1488;51.548;7.222;2023-02-22T16:15:35;22.10;61.30
2957;DHT22;1488;51.548;7.222;2023-02-22T16:18:25;22.00;60.30
2957;DHT22;1488;51.548;7.222;2023-02-22T16:21:02;22.00;60.30
2957;DHT22;1488;51.548;7.222;2023-02-22T16:23:29;22.00;61.50
2957;DHT22;1488;51.548;7.222;2023-02-22T16:26:22;22.00;62.30
2957;DHT22;1488;51.548;7.222;2023-02-22T16:28:51;22.00;62.50
2957;DHT22;1488;51.548;7.222;2023-02-22T16:31:21;22.00;62.70
2957;DHT22;1488;51.548;7.222;2023-02-22T16:33:49;22.00;62.80
2957;DHT22;1488;51.548;7.222;2023-02-22T16:36:17;22.00;62.80
2957;DHT22;1488;51.548;7.222;2023-02-22T16:38:45;22.00;63.00
2957;DHT22;1488;51.548;7.222;2023-02-22T16:41:13;22.00;63.00
2957;DHT22;1488;51.548;7.222;2023-02-22T16:43:45;22.00;63.10
2957;DHT22;1488;51.548;7.222;2023-02-22T16:46:15;22.00;63.20
2957;DHT22;1488;51.548;7.222;2023-02-22T16:48:44;22.00;63.20
2957;DHT22;1488;51.548;7.222;2023-02-22T16:51:20;22.00;63.20
2957;DHT22;1488;51.548;7.222;2023-02-22T16:53:49;22.00;63.10
2957;DHT22;1488;51.548;7.222;2023-02-22T16:56:18;22.00;63.10
2957;DHT22;1488;51.548;7.222;2023-02-22T16:58:47;22.00;63.10
2957;DHT22;1488;51.548;7.222;2023-02-22T17:01:15;22.00;63.10
2957;DHT22;1488;51.548;7.222;2023-02-22T17:03:44;22.00;63.20
2957;DHT22;1488;51.548;7.222;2023-02-22T17:06:11;22.00;63.20
2957;DHT22;1488;51.548;7.222;2023-02-22T17:08:39;22.10;63.60
2957;DHT22;1488;51.548;7.222;2023-02-22T17:11:06;21.90;63.50
2957;DHT22;1488;51.548;7.222;2023-02-22T17:13:33;21.90;63.60
2957;DHT22;1488;51.548;7.222;2023-02-22T17:16:01;21.90;63.80